Terminal Aerodrome Forecast
Issued by NWS Cleveland, OH

Home | Current Version | Previous Version | Text Only | Print | Product List | Glossary Off
Versions: 1 2 3 4 5 6 7 8 9 10 11 12 13 14 15 16 17 18 19 20

922
FTUS41 KCLE 081735
TAFMFD
TAF
KMFD 081735Z 0818/0918 27014G22KT 6SM -SHSN OVC020
      TEMPO 0820/0822 5SM -SHSN BKN018
     FM082200 26012G20KT 3SM -SHSN OVC012
      TEMPO 0900/0903 2SM -SHSN
     FM090300 26012G20KT 1 1/2SM -SHSN OVC008
     FM091400 27012KT 3SM -SHSN OVC020=

USA.gov is the U.S. government's official web portal to all federal, state and local government web resources and services.